Vision — WDF6306 — position and weather

sailwx.info

Track history (hours):
 
Tides and Currents Weather Stations Pressure Air Temp Water Temp Dewpoint Dewpoint Depression Visibility Wind Speed Wind Dir Waves Ship Positions

Vision

More information available from US FCC via Universal Licensing System and Coast Guard Vessel Documentation Center.

Last reported at 2014-Sep-30 13:33 UTC. Time now 2014-Sep-30 14:03 UTC.
Position N 48°23' W 124°17'.

Length 199 m; draft 9.5 m.

Type: Towing. MMSI: 366904000.

Date/timePositionNaut miles runAvg speedWind from/ knotsBaromVisibWave heightAir tempDewpointWater temp
2014-Sep-30 13:33N 48°23' W 124°17'1111.4
2014-Sep-30 12:33N 48°19' W 124°01'1111.2
2014-Sep-30 11:33N 48°17' W 123°44'1212.2
2014-Sep-30 10:33N 48°13' W 123°27'9 8.3
2014-Sep-30 09:32N 48°11' W 123°14'1313.5
2014-Sep-30 08:33N 48°20' W 122°59'1313.3
2014-Sep-30 07:33N 48°29' W 122°44'6 6.4
2014-Sep-30 06:33N 48°31' W 122°35'0 0.5
2014-Sep-30 05:33N 48°31' W 122°35'0 0.0
2014-Sep-30 04:32N 48°31' W 122°35'0 0.0
2014-Sep-30 03:32N 48°31' W 122°35'0 0.0
2014-Sep-30 02:32N 48°31' W 122°35'0 0.0
2014-Sep-30 01:29N 48°31' W 122°35'0 0.0
2014-Sep-30 00:29N 48°31' W 122°35'0 0.0
2014-Sep-29 23:32N 48°31' W 122°35'0 0.0
2014-Sep-29 22:29N 48°31' W 122°35'0 0.0
2014-Sep-29 21:29N 48°31' W 122°35'0 0.0
2014-Sep-29 20:29N 48°31' W 122°35'0 0.0
2014-Sep-29 19:32N 48°31' W 122°35'0 0.0
2014-Sep-29 18:29N 48°31' W 122°35'0 0.0
2014-Sep-29 17:29N 48°31' W 122°35'0 0.0
2014-Sep-29 16:29N 48°31' W 122°35'0 0.0
2014-Sep-29 15:32N 48°31' W 122°35'0 0.0
2014-Sep-29 14:29N 48°31' W 122°35'0 0.0
2014-Sep-29 13:29N 48°31' W 122°35'0 0.0
2014-Sep-29 12:32N 48°31' W 122°35'0 0.0
2014-Sep-29 11:32N 48°31' W 122°35'0 0.0
2014-Sep-29 10:29N 48°31' W 122°35'0 0.0
2014-Sep-29 09:29N 48°31' W 122°35'0 0.0
2014-Sep-29 08:32N 48°31' W 122°35'0 0.0
2014-Sep-29 07:32N 48°31' W 122°35'0 0.0
2014-Sep-29 06:29N 48°31' W 122°35'0 0.0
2014-Sep-29 05:29N 48°31' W 122°35'0 0.0
2014-Sep-29 04:29N 48°31' W 122°35'0 0.0
2014-Sep-29 03:29N 48°31' W 122°35'0 0.0
2014-Sep-29 02:29N 48°31' W 122°35'0 0.0
2014-Sep-29 01:29N 48°31' W 122°35'0 0.0
2014-Sep-29 00:29N 48°31' W 122°35'0 0.0
2014-Sep-28 23:29N 48°31' W 122°35'0 0.0
2014-Sep-28 22:29N 48°31' W 122°35'0 0.0
2014-Sep-28 21:29N 48°31' W 122°35'0 0.0
2014-Sep-28 20:29N 48°31' W 122°35'0 0.0
2014-Sep-28 19:29N 48°31' W 122°35'3 3.4
2014-Sep-28 18:33N 48°31' W 122°39'1110.8
2014-Sep-28 17:33N 48°23' W 122°50'1212.2
2014-Sep-28 16:33N 48°16' W 123°06'1312.5
2014-Sep-28 15:33N 48°09' W 123°21'4 3.7
2014-Sep-28 14:26N 48°08' W 123°27'0 0.1
2014-Sep-28 13:29N 48°08' W 123°27'0 0.1
2014-Sep-28 12:29N 48°08' W 123°27'0 0.0
2014-Sep-28 11:32N 48°08' W 123°27'0 0.0
2014-Sep-28 10:29N 48°08' W 123°27'0 0.0
2014-Sep-28 09:29N 48°08' W 123°27'0 0.0
2014-Sep-28 08:26N 48°08' W 123°27'0 0.0
2014-Sep-28 07:32N 48°08' W 123°27'0 0.1
2014-Sep-28 06:29N 48°08' W 123°27'0 0.0
2014-Sep-28 03:26N 48°08' W 123°27'0 0.1
2014-Sep-28 02:29N 48°08' W 123°27'0 0.0
2014-Sep-28 01:26N 48°08' W 123°27'0 0.0
2014-Sep-28 00:32N 48°08' W 123°27'0 0.0
2014-Sep-27 23:32N 48°08' W 123°27'0 0.1
2014-Sep-27 22:32N 48°08' W 123°27'0 0.1
2014-Sep-27 21:23N 48°08' W 123°27'0 0.0
2014-Sep-27 20:32N 48°08' W 123°27'0 0.0
2014-Sep-27 19:23N 48°08' W 123°27'0 0.1
2014-Sep-27 18:33N 48°08' W 123°27'7 6.9
2014-Sep-27 17:33N 48°13' W 123°33'1312.6
2014-Sep-27 16:33N 48°13' W 123°52'1010.1
2014-Sep-27 15:33N 48°17' W 124°06'1010.2
2014-Sep-27 14:33N 48°21' W 124°20'1110.8
2014-Sep-27 13:33N 48°26' W 124°35'1211.9
2014-Sep-27 12:33N 48°29' W 124°52'1111.0
2014-Sep-27 11:33N 48°22' W 125°06'1212.1
2014-Sep-27 10:33N 48°12' W 125°15'  
2014-Sep-25 03:32N 38°16' W 124°20'1111.3
2014-Sep-25 02:32N 38°08' W 124°10'1111.1
2014-Sep-25 01:33N 37°59' W 124°02'1111.1
2014-Sep-25 00:33N 37°51' W 123°52'1110.8
2014-Sep-24 23:33N 37°43' W 123°43'1111.3
2014-Sep-24 22:33N 37°35' W 123°32'9 8.6
2014-Sep-24 21:33N 37°34' W 123°22'1110.7
2014-Sep-24 20:33N 37°34' W 123°08'1010.5
2014-Sep-24 19:33N 37°38' W 122°56'1110.7
2014-Sep-24 18:33N 37°44' W 122°45'9 9.4
2014-Sep-24 17:33N 37°47' W 122°34'8 8.3
2014-Sep-24 16:33N 37°52' W 122°25'1010.2
2014-Sep-24 15:33N 38°02' W 122°22'11 0.5
2014-Sep-23 17:04N 38°02' W 122°08'0 0.0
2014-Sep-23 14:16N 38°02' W 122°08'0 0.0
2014-Sep-23 13:22N 38°02' W 122°08'0 0.0
2014-Sep-23 10:16N 38°02' W 122°08'0 0.0
2014-Sep-23 08:22N 38°02' W 122°08'0 0.0
2014-Sep-23 06:22N 38°02' W 122°08'0 0.0
2014-Sep-23 04:04N 38°02' W 122°08'0 0.0
2014-Sep-23 01:33N 38°02' W 122°08'7 6.9
2014-Sep-23 00:33N 38°04' W 122°17'8 8.5
2014-Sep-22 23:33N 37°59' W 122°26'8 8.1
2014-Sep-22 22:34N 37°51' W 122°24'8 7.6
2014-Sep-22 21:33N 37°47' W 122°33'10 9.7
2014-Sep-22 20:33N 37°42' W 122°44'8 8.4
2014-Sep-22 19:33N 37°38' W 122°53'9 9.2
2014-Sep-22 18:33N 37°33' W 123°02'1110.5
2014-Sep-22 17:32N 37°34' W 123°16'1111.0
2014-Sep-22 16:33N 37°37' W 123°29'8 8.4
2014-Sep-22 15:33N 37°41' W 123°38'9 9.1
2014-Sep-22 14:34N 37°46' W 123°48'1510.9
2014-Sep-22 13:12N 37°55' W 124°02'911.3
2014-Sep-22 12:26N 38°01' W 124°11'1211.7
2014-Sep-22 11:24N 38°09' W 124°23'1011.6
2014-Sep-22 10:30N 38°16' W 124°32'  
Track history (hours):
 
Tides and Currents Weather Stations Pressure Air Temp Water Temp Dewpoint Dewpoint Depression Visibility Wind Speed Wind Dir Waves Ship Positions

Vision

More information available from US FCC via Universal Licensing System and Coast Guard Vessel Documentation Center.

Last reported at 2014-Sep-30 13:33 UTC. Time now 2014-Sep-30 14:03 UTC.
Position N 48°23' W 124°17'.

Length 199 m; draft 9.5 m.

Type: Towing. MMSI: 366904000.

Date/timePositionNaut miles runAvg speedWind from/ knotsBaromVisibWave heightAir tempDewpointWater temp
2014-Sep-30 13:33N 48°23' W 124°17'1111.4
2014-Sep-30 12:33N 48°19' W 124°01'1111.2
2014-Sep-30 11:33N 48°17' W 123°44'1212.2
2014-Sep-30 10:33N 48°13' W 123°27'9 8.3
2014-Sep-30 09:32N 48°11' W 123°14'1313.5
2014-Sep-30 08:33N 48°20' W 122°59'1313.3
2014-Sep-30 07:33N 48°29' W 122°44'6 6.4
2014-Sep-30 06:33N 48°31' W 122°35'0 0.5
2014-Sep-30 05:33N 48°31' W 122°35'0 0.0
2014-Sep-30 04:32N 48°31' W 122°35'0 0.0
2014-Sep-30 03:32N 48°31' W 122°35'0 0.0
2014-Sep-30 02:32N 48°31' W 122°35'0 0.0
2014-Sep-30 01:29N 48°31' W 122°35'0 0.0
2014-Sep-30 00:29N 48°31' W 122°35'0 0.0
2014-Sep-29 23:32N 48°31' W 122°35'0 0.0
2014-Sep-29 22:29N 48°31' W 122°35'0 0.0
2014-Sep-29 21:29N 48°31' W 122°35'0 0.0
2014-Sep-29 20:29N 48°31' W 122°35'0 0.0
2014-Sep-29 19:32N 48°31' W 122°35'0 0.0
2014-Sep-29 18:29N 48°31' W 122°35'0 0.0
2014-Sep-29 17:29N 48°31' W 122°35'0 0.0
2014-Sep-29 16:29N 48°31' W 122°35'0 0.0
2014-Sep-29 15:32N 48°31' W 122°35'0 0.0
2014-Sep-29 14:29N 48°31' W 122°35'0 0.0
2014-Sep-29 13:29N 48°31' W 122°35'0 0.0
2014-Sep-29 12:32N 48°31' W 122°35'0 0.0
2014-Sep-29 11:32N 48°31' W 122°35'0 0.0
2014-Sep-29 10:29N 48°31' W 122°35'0 0.0
2014-Sep-29 09:29N 48°31' W 122°35'0 0.0
2014-Sep-29 08:32N 48°31' W 122°35'0 0.0
2014-Sep-29 07:32N 48°31' W 122°35'0 0.0
2014-Sep-29 06:29N 48°31' W 122°35'0 0.0
2014-Sep-29 05:29N 48°31' W 122°35'0 0.0
2014-Sep-29 04:29N 48°31' W 122°35'0 0.0
2014-Sep-29 03:29N 48°31' W 122°35'0 0.0
2014-Sep-29 02:29N 48°31' W 122°35'0 0.0
2014-Sep-29 01:29N 48°31' W 122°35'0 0.0
2014-Sep-29 00:29N 48°31' W 122°35'0 0.0
2014-Sep-28 23:29N 48°31' W 122°35'0 0.0
2014-Sep-28 22:29N 48°31' W 122°35'0 0.0
2014-Sep-28 21:29N 48°31' W 122°35'0 0.0
2014-Sep-28 20:29N 48°31' W 122°35'0 0.0
2014-Sep-28 19:29N 48°31' W 122°35'3 3.4
2014-Sep-28 18:33N 48°31' W 122°39'1110.8
2014-Sep-28 17:33N 48°23' W 122°50'1212.2
2014-Sep-28 16:33N 48°16' W 123°06'1312.5
2014-Sep-28 15:33N 48°09' W 123°21'4 3.7
2014-Sep-28 14:26N 48°08' W 123°27'0 0.1
2014-Sep-28 13:29N 48°08' W 123°27'0 0.1
2014-Sep-28 12:29N 48°08' W 123°27'0 0.0
2014-Sep-28 11:32N 48°08' W 123°27'0 0.0
2014-Sep-28 10:29N 48°08' W 123°27'0 0.0
2014-Sep-28 09:29N 48°08' W 123°27'0 0.0
2014-Sep-28 08:26N 48°08' W 123°27'0 0.0
2014-Sep-28 07:32N 48°08' W 123°27'0 0.1
2014-Sep-28 06:29N 48°08' W 123°27'0 0.0
2014-Sep-28 03:26N 48°08' W 123°27'0 0.1
2014-Sep-28 02:29N 48°08' W 123°27'0 0.0
2014-Sep-28 01:26N 48°08' W 123°27'0 0.0
2014-Sep-28 00:32N 48°08' W 123°27'0 0.0
2014-Sep-27 23:32N 48°08' W 123°27'0 0.1
2014-Sep-27 22:32N 48°08' W 123°27'0 0.1
2014-Sep-27 21:23N 48°08' W 123°27'0 0.0
2014-Sep-27 20:32N 48°08' W 123°27'0 0.0
2014-Sep-27 19:23N 48°08' W 123°27'0 0.1
2014-Sep-27 18:33N 48°08' W 123°27'7 6.9
2014-Sep-27 17:33N 48°13' W 123°33'1312.6
2014-Sep-27 16:33N 48°13' W 123°52'1010.1
2014-Sep-27 15:33N 48°17' W 124°06'1010.2
2014-Sep-27 14:33N 48°21' W 124°20'1110.8
2014-Sep-27 13:33N 48°26' W 124°35'1211.9
2014-Sep-27 12:33N 48°29' W 124°52'1111.0
2014-Sep-27 11:33N 48°22' W 125°06'1212.1
2014-Sep-27 10:33N 48°12' W 125°15'  
2014-Sep-25 03:32N 38°16' W 124°20'1111.3
2014-Sep-25 02:32N 38°08' W 124°10'1111.1
2014-Sep-25 01:33N 37°59' W 124°02'1111.1
2014-Sep-25 00:33N 37°51' W 123°52'1110.8
2014-Sep-24 23:33N 37°43' W 123°43'1111.3
2014-Sep-24 22:33N 37°35' W 123°32'9 8.6
2014-Sep-24 21:33N 37°34' W 123°22'1110.7
2014-Sep-24 20:33N 37°34' W 123°08'1010.5
2014-Sep-24 19:33N 37°38' W 122°56'1110.7
2014-Sep-24 18:33N 37°44' W 122°45'9 9.4
2014-Sep-24 17:33N 37°47' W 122°34'8 8.3
2014-Sep-24 16:33N 37°52' W 122°25'1010.2
2014-Sep-24 15:33N 38°02' W 122°22'11 0.5
2014-Sep-23 17:04N 38°02' W 122°08'0 0.0
2014-Sep-23 14:16N 38°02' W 122°08'0 0.0
2014-Sep-23 13:22N 38°02' W 122°08'0 0.0
2014-Sep-23 10:16N 38°02' W 122°08'0 0.0
2014-Sep-23 08:22N 38°02' W 122°08'0 0.0
2014-Sep-23 06:22N 38°02' W 122°08'0 0.0
2014-Sep-23 04:04N 38°02' W 122°08'0 0.0
2014-Sep-23 01:33N 38°02' W 122°08'7 6.9
2014-Sep-23 00:33N 38°04' W 122°17'8 8.5
2014-Sep-22 23:33N 37°59' W 122°26'8 8.1
2014-Sep-22 22:34N 37°51' W 122°24'8 7.6
2014-Sep-22 21:33N 37°47' W 122°33'10 9.7
2014-Sep-22 20:33N 37°42' W 122°44'8 8.4
2014-Sep-22 19:33N 37°38' W 122°53'9 9.2
2014-Sep-22 18:33N 37°33' W 123°02'1110.5
2014-Sep-22 17:32N 37°34' W 123°16'1111.0
2014-Sep-22 16:33N 37°37' W 123°29'8 8.4
2014-Sep-22 15:33N 37°41' W 123°38'9 9.1
2014-Sep-22 14:34N 37°46' W 123°48'1510.9
2014-Sep-22 13:12N 37°55' W 124°02'911.3
2014-Sep-22 12:26N 38°01' W 124°11'1211.7
2014-Sep-22 11:24N 38°09' W 124°23'1011.6
2014-Sep-22 10:30N 38°16' W 124°32'  

Dump ship's entire track history